createdAt,value
2019-04-22T00:00:24.595Z,12.67
2019-04-22T00:03:37.754Z,12.87
2019-04-22T00:06:59.793Z,11.83
2019-04-22T00:10:14.511Z,11.07
2019-04-22T00:13:21.589Z,10.97
2019-04-22T00:16:27.969Z,12.37
2019-04-22T00:19:32.174Z,12.03
2019-04-22T00:22:31.753Z,9.77
2019-04-22T00:25:44.353Z,11.67
2019-04-22T00:28:52.211Z,10.13
2019-04-22T00:32:04.948Z,11.03
2019-04-22T00:35:11.800Z,11.47
2019-04-22T00:38:26.540Z,11.17
2019-04-22T00:41:29.800Z,9.93
2019-04-22T00:44:40.326Z,9.40
2019-04-22T00:47:41.446Z,9.70
2019-04-22T00:51:01.730Z,9.83
2019-04-22T00:54:04.135Z,9.60
2019-04-22T00:57:08.771Z,9.53
2019-04-22T01:00:17.650Z,9.53
2019-04-22T01:03:32.316Z,9.77
2019-04-22T01:06:27.060Z,10.73
2019-04-22T01:09:43.241Z,11.53
2019-04-22T01:12:46.311Z,9.40
2019-04-22T01:15:47.886Z,10.17
2019-04-22T01:18:57.453Z,11.07
2019-04-22T01:21:58.569Z,11.37
2019-04-22T01:25:06.788Z,9.97
2019-04-22T01:28:06.420Z,10.50
2019-04-22T01:31:04.725Z,10.63
2019-04-22T01:34:22.272Z,10.77
2019-04-22T01:37:32.921Z,10.37
2019-04-22T01:40:45.481Z,11.03
2019-04-22T01:43:59.091Z,10.80
2019-04-22T01:47:02.272Z,9.27
2019-04-22T01:50:06.286Z,11.10
2019-04-22T01:53:11.781Z,10.30
2019-04-22T01:56:20.587Z,10.60
2019-04-22T01:59:19.878Z,15.07
2019-04-22T02:02:39.932Z,10.40
2019-04-22T02:05:40.216Z,10.13
2019-04-22T02:08:45.404Z,12.10
2019-04-22T02:11:56.361Z,9.77
2019-04-22T02:15:01.888Z,10.17
2019-04-22T02:18:11.542Z,10.87
2019-04-22T02:21:13.864Z,10.50
2019-04-22T02:24:26.446Z,10.60
2019-04-22T02:27:35.390Z,11.47
2019-04-22T02:30:53.553Z,10.63
2019-04-22T02:37:07.008Z,10.97
2019-04-22T02:43:16.895Z,11.13
2019-04-22T02:52:37.438Z,11.57
2019-04-22T02:55:32.375Z,12.30
2019-04-22T03:01:41.137Z,11.43
2019-04-22T03:04:51.534Z,11.30
2019-04-22T03:11:13.128Z,10.67
2019-04-22T03:17:23.254Z,11.00
2019-04-22T03:20:41.562Z,10.60
2019-04-22T03:24:00.759Z,11.30
2019-04-22T03:36:58.160Z,11.13
2019-04-22T03:39:38.089Z,11.33
2019-04-22T03:42:46.716Z,10.17
2019-04-22T03:49:07.352Z,10.27
2019-04-22T03:52:05.326Z,10.00
2019-04-22T03:55:05.559Z,11.60
2019-04-22T03:58:14.558Z,13.40
2019-04-22T04:01:18.748Z,10.40
2019-04-22T04:04:25.971Z,10.73
2019-04-22T04:07:47.556Z,11.27
2019-04-22T04:13:42.027Z,10.60
2019-04-22T04:17:02.366Z,10.43
2019-04-22T04:23:11.457Z,10.47
2019-04-22T04:26:37.302Z,10.67
2019-04-22T04:29:37.074Z,10.40
2019-04-22T04:32:38.787Z,10.80
2019-04-22T04:35:47.731Z,10.17
2019-04-22T04:38:46.084Z,11.37
2019-04-22T04:42:05.380Z,11.47
2019-04-22T04:51:15.866Z,10.60
2019-04-22T04:57:26.202Z,10.97
2019-04-22T05:00:46.042Z,11.50
2019-04-22T05:03:39.585Z,13.57
2019-04-22T05:06:44.965Z,10.70
2019-04-22T05:09:41.152Z,11.17
2019-04-22T05:12:57.184Z,12.83
2019-04-22T05:16:10.641Z,10.90
2019-04-22T05:22:05.235Z,10.97
2019-04-22T05:28:15.078Z,11.17
2019-04-22T05:31:35.225Z,12.73
2019-04-22T05:34:29.504Z,12.17
2019-04-22T05:37:45.747Z,10.63
2019-04-22T05:40:40.741Z,12.57
2019-04-22T05:44:00.485Z,10.90
2019-04-22T05:47:02.671Z,11.47
2019-04-22T05:50:07.536Z,12.00
2019-04-22T05:53:06.558Z,12.30
2019-04-22T05:56:30.059Z,12.87
2019-04-22T05:59:27.344Z,11.57
2019-04-22T06:05:45.312Z,11.90
2019-04-22T06:08:50.730Z,10.73
2019-04-22T06:11:51.504Z,9.70
2019-04-22T06:15:09.673Z,9.17
2019-04-22T06:18:18.395Z,8.70
2019-04-22T06:21:18.707Z,9.77
2019-04-22T06:27:38.979Z,8.17
2019-04-22T06:30:41.749Z,7.83
2019-04-22T06:33:50.763Z,8.53
2019-04-22T06:37:05.314Z,5.47
2019-04-22T06:39:59.260Z,4.60
2019-04-22T06:43:13.674Z,5.10
2019-04-22T06:46:17.315Z,5.70
2019-04-22T06:49:27.411Z,5.17
2019-04-22T06:52:22.291Z,5.57
2019-04-22T06:55:40.175Z,5.37
2019-04-22T06:58:39.703Z,4.73
2019-04-22T07:01:59.824Z,4.83
2019-04-22T07:04:56.590Z,4.77
2019-04-22T07:08:05.638Z,5.40
2019-04-22T07:11:04.845Z,4.40
2019-04-22T07:14:10.509Z,5.10
2019-04-22T07:17:22.079Z,5.40
2019-04-22T07:23:33.320Z,5.00
2019-04-22T07:26:39.653Z,7.57
2019-04-22T07:29:47.624Z,5.20
2019-04-22T07:33:15.091Z,5.53
2019-04-22T07:36:25.763Z,5.07
2019-04-22T07:39:08.669Z,5.23
2019-04-22T07:42:12.720Z,5.83
2019-04-22T07:45:15.545Z,5.20
2019-04-22T07:51:32.592Z,5.97
2019-04-22T07:54:42.360Z,6.47
2019-04-22T07:57:44.432Z,4.80
2019-04-22T08:00:55.326Z,5.43
2019-04-22T08:13:23.406Z,5.07
2019-04-22T08:16:23.179Z,4.60
2019-04-22T08:19:35.403Z,4.77
2019-04-22T08:22:47.663Z,5.30
2019-04-22T08:25:44.191Z,4.97
2019-04-22T08:28:59.341Z,6.63
2019-04-22T08:32:01.107Z,5.47
2019-04-22T08:35:04.905Z,4.80
2019-04-22T08:38:11.863Z,6.00
2019-04-22T08:41:28.467Z,5.17
2019-04-22T08:44:52.192Z,9.07
2019-04-22T08:47:36.300Z,5.17
2019-04-22T08:50:46.492Z,4.80
2019-04-22T08:53:56.257Z,5.20
2019-04-22T08:56:50.956Z,5.57
2019-04-22T09:00:02.934Z,5.20
2019-04-22T09:03:12.364Z,4.93
2019-04-22T09:06:22.477Z,5.23
2019-04-22T09:09:21.310Z,5.50
2019-04-22T09:15:34.324Z,5.53
2019-04-22T09:18:48.563Z,5.30
2019-04-22T09:21:54.466Z,4.53
2019-04-22T09:24:52.745Z,5.93
2019-04-22T09:28:01.817Z,5.20
2019-04-22T09:31:11.392Z,4.40
2019-04-22T09:34:14.098Z,5.57
2019-04-22T09:37:30.386Z,4.70
2019-04-22T09:40:28.989Z,7.50
2019-04-22T09:43:40.049Z,5.20
2019-04-22T09:46:47.321Z,6.27
2019-04-22T09:49:54.913Z,5.23
2019-04-22T09:56:03.965Z,6.77
2019-04-22T09:59:07.688Z,4.40
2019-04-22T10:05:29.397Z,4.60
2019-04-22T10:08:41.131Z,6.40
2019-04-22T10:11:37.682Z,5.33
2019-04-22T10:14:45.630Z,4.90
2019-04-22T10:17:49.445Z,4.93
2019-04-22T10:21:00.951Z,6.10
2019-04-22T10:24:06.792Z,5.10
2019-04-22T10:27:06.066Z,5.93
2019-04-22T10:30:22.028Z,4.90
2019-04-22T10:33:21.962Z,4.70
2019-04-22T10:36:07.934Z,4.70
2019-04-22T10:39:13.255Z,5.20
2019-04-22T10:42:18.574Z,4.90
2019-04-22T10:45:23.970Z,7.60
2019-04-22T10:48:30.190Z,5.10
2019-04-22T10:51:35.305Z,5.60
2019-04-22T10:54:41.252Z,4.73
2019-04-22T10:57:48.504Z,5.73
2019-04-22T11:00:54.299Z,8.13
2019-04-22T11:04:01.507Z,6.67
2019-04-22T11:07:10.097Z,4.90
2019-04-22T11:10:32.391Z,5.00
2019-04-22T11:13:22.096Z,4.93
2019-04-22T11:16:27.891Z,5.07
2019-04-22T11:19:33.164Z,6.40
2019-04-22T11:22:38.893Z,5.10
2019-04-22T11:25:46.070Z,4.80
2019-04-22T11:28:51.788Z,5.30
2019-04-22T11:31:56.917Z,5.10
2019-04-22T11:35:03.641Z,5.40
2019-04-22T11:38:10.663Z,5.27
2019-04-22T11:41:16.811Z,4.93
2019-04-22T11:44:23.387Z,6.23
2019-04-22T11:47:29.668Z,4.37
2019-04-22T11:50:35.738Z,4.63
2019-04-22T11:53:41.022Z,4.50
2019-04-22T11:56:47.310Z,7.43
2019-04-22T11:59:52.577Z,4.43
2019-04-22T12:02:58.821Z,3.80
2019-04-22T12:06:04.148Z,4.27
2019-04-22T12:09:12.479Z,4.00
2019-04-22T12:12:18.147Z,3.93
2019-04-22T12:15:24.666Z,4.60
2019-04-22T12:18:31.165Z,4.00
2019-04-22T12:21:37.195Z,4.27
2019-04-22T12:24:42.541Z,4.10
2019-04-22T12:27:47.708Z,4.30
2019-04-22T12:30:53.532Z,3.53
2019-04-22T12:33:59.336Z,3.80
2019-04-22T12:37:04.668Z,4.97
2019-04-22T12:40:10.815Z,4.13
2019-04-22T12:43:18.503Z,3.77
2019-04-22T12:46:23.864Z,4.47
2019-04-22T12:49:29.967Z,4.13
2019-04-22T12:52:43.421Z,3.77
2019-04-22T12:55:42.072Z,7.23
2019-04-22T12:58:47.661Z,5.83
2019-04-22T13:01:52.951Z,5.33
2019-04-22T13:04:58.229Z,3.93
2019-04-22T13:08:03.672Z,5.00
2019-04-22T13:11:13.049Z,4.03
2019-04-22T13:14:16.718Z,5.40
2019-04-22T13:17:22.975Z,6.87
2019-04-22T13:20:28.324Z,3.53
2019-04-22T13:23:34.043Z,3.67
2019-04-22T13:26:38.997Z,3.97
2019-04-22T13:29:46.572Z,4.67
2019-04-22T13:32:50.740Z,2.90
2019-04-22T13:35:55.712Z,3.80
2019-04-22T13:39:00.826Z,4.03
2019-04-22T13:42:11.483Z,6.73
2019-04-22T13:45:13.797Z,3.67
2019-04-22T13:48:40.101Z,4.77
2019-04-22T13:51:52.115Z,6.40
2019-04-22T13:54:53.190Z,4.30
2019-04-22T13:57:54.041Z,4.27
2019-04-22T14:00:46.806Z,4.17
2019-04-22T14:04:07.103Z,5.33
2019-04-22T14:07:12.681Z,3.70
2019-04-22T14:10:18.518Z,3.63
2019-04-22T14:13:23.981Z,4.10
2019-04-22T14:16:29.020Z,4.50
2019-04-22T14:19:34.160Z,3.97
2019-04-22T14:22:39.082Z,4.33
2019-04-22T14:25:44.138Z,3.83
2019-04-22T14:28:50.069Z,4.07
2019-04-22T14:32:06.684Z,3.17
2019-04-22T14:35:03.072Z,4.10
2019-04-22T14:38:08.480Z,3.97
2019-04-22T14:41:34.640Z,4.23
2019-04-22T14:45:16.887Z,3.77
2019-04-22T14:47:55.993Z,5.70
2019-04-22T14:50:51.395Z,4.90
2019-04-22T14:53:56.589Z,3.70
2019-04-22T14:56:48.448Z,3.77
2019-04-22T14:59:53.747Z,4.37
2019-04-22T15:02:59.783Z,3.67
2019-04-22T15:06:06.224Z,4.17
2019-04-22T15:09:12.195Z,4.77
2019-04-22T15:12:27.770Z,5.30
2019-04-22T15:15:49.006Z,4.50
2019-04-22T15:19:27.600Z,4.10
2019-04-22T15:22:32.750Z,4.30
2019-04-22T15:25:38.592Z,4.57
2019-04-22T15:28:45.124Z,4.37
2019-04-22T15:31:51.458Z,4.07
2019-04-22T15:34:57.301Z,4.27
2019-04-22T15:38:04.559Z,3.90
2019-04-22T15:41:10.345Z,4.90
2019-04-22T15:44:17.925Z,4.67
2019-04-22T15:47:22.970Z,4.37
2019-04-22T15:50:28.769Z,5.20
2019-04-22T15:53:33.919Z,4.53
2019-04-22T15:56:39.112Z,5.10
2019-04-22T15:59:59.234Z,3.77
2019-04-22T16:02:52.003Z,4.00
2019-04-22T16:05:57.660Z,4.13
2019-04-22T16:09:04.651Z,3.73
2019-04-22T16:12:16.355Z,3.43
2019-04-22T16:15:18.310Z,4.97
2019-04-22T16:18:24.344Z,4.30
2019-04-22T16:21:39.791Z,3.83
2019-04-22T16:25:08.994Z,7.93
2019-04-22T16:28:15.385Z,6.50
2019-04-22T16:31:21.806Z,4.47
2019-04-22T16:34:27.296Z,4.53
2019-04-22T16:37:32.769Z,3.93
2019-04-22T16:40:38.903Z,5.27
2019-04-22T16:43:44.641Z,4.67
2019-04-22T16:46:50.074Z,4.87
2019-04-22T16:49:55.346Z,5.77
2019-04-22T16:53:02.073Z,4.50
2019-04-22T16:56:08.687Z,4.03
2019-04-22T16:59:14.857Z,4.67
2019-04-22T17:02:56.027Z,5.50
2019-04-22T17:06:19.441Z,4.93
2019-04-22T17:09:25.801Z,5.30
2019-04-22T17:12:40.840Z,5.57
2019-04-22T17:15:37.782Z,6.13
2019-04-22T17:18:43.617Z,4.03
2019-04-22T17:21:49.958Z,5.07
2019-04-22T17:24:56.072Z,4.37
2019-04-22T17:28:01.420Z,4.80
2019-04-22T17:31:06.795Z,7.30
2019-04-22T17:34:11.772Z,5.33
2019-04-22T17:37:24.153Z,4.83
2019-04-22T17:40:45.682Z,5.20
2019-04-22T17:43:54.251Z,19.13
2019-04-22T17:46:56.352Z,5.10
2019-04-22T17:50:13.319Z,4.80
2019-04-22T17:53:40.157Z,5.80
2019-04-22T17:56:27.524Z,4.40
2019-04-22T17:59:36.016Z,4.73
2019-04-22T18:02:35.730Z,5.40
2019-04-22T18:05:34.654Z,4.50
2019-04-22T18:08:53.585Z,4.50
2019-04-22T18:12:05.422Z,4.57
2019-04-22T18:15:16.233Z,5.43
2019-04-22T18:18:19.038Z,6.97
2019-04-22T18:21:13.340Z,11.13
2019-04-22T18:24:15.747Z,4.70
2019-04-22T18:27:48.924Z,4.77
2019-04-22T18:30:34.727Z,5.80
2019-04-22T18:33:47.804Z,5.87
2019-04-22T18:36:51.046Z,5.83
2019-04-22T18:40:04.712Z,4.90
2019-04-22T18:43:09.998Z,4.47
2019-04-22T18:46:15.782Z,8.70
2019-04-22T18:49:23.190Z,5.70
2019-04-22T18:53:07.070Z,6.00
2019-04-22T18:56:15.294Z,3.90
2019-04-22T18:59:09.509Z,4.47
2019-04-22T19:02:07.839Z,4.13
2019-04-22T19:05:22.270Z,4.80
2019-04-22T19:08:36.406Z,7.53
2019-04-22T19:11:51.952Z,4.60
2019-04-22T19:14:59.041Z,10.30
2019-04-22T19:18:03.928Z,3.87
2019-04-22T19:21:07.884Z,4.70
2019-04-22T19:24:09.026Z,6.40
2019-04-22T19:27:17.380Z,7.00
2019-04-22T19:30:35.677Z,7.20
2019-04-22T19:33:34.868Z,5.90
2019-04-22T19:36:46.802Z,4.90
2019-04-22T19:39:57.917Z,7.00
2019-04-22T19:42:57.436Z,5.63
2019-04-22T19:46:02.303Z,5.03
2019-04-22T19:49:10.067Z,8.83
2019-04-22T19:52:18.557Z,5.57
2019-04-22T19:55:25.485Z,5.53
2019-04-22T19:58:28.025Z,6.27
2019-04-22T20:01:53.212Z,5.80
2019-04-22T20:05:26.684Z,8.70
2019-04-22T20:08:26.826Z,9.80
2019-04-22T20:11:34.186Z,6.87
2019-04-22T20:14:43.565Z,5.33
2019-04-22T20:18:09.274Z,5.50
2019-04-22T20:20:58.466Z,5.87
2019-04-22T20:23:51.670Z,5.53
2019-04-22T20:27:12.436Z,4.40
2019-04-22T20:30:17.222Z,4.97
2019-04-22T20:33:29.344Z,5.63
2019-04-22T20:36:44.928Z,6.83
2019-04-22T20:39:39.444Z,5.47
2019-04-22T20:42:48.942Z,6.50
2019-04-22T20:45:51.172Z,4.77
2019-04-22T20:49:09.634Z,7.43
2019-04-22T20:52:12.293Z,4.93
2019-04-22T20:55:07.705Z,4.40
2019-04-22T20:58:15.077Z,6.07
2019-04-22T21:01:15.790Z,4.90
2019-04-22T21:04:22.489Z,4.80
2019-04-22T21:07:31.450Z,10.83
2019-04-22T21:10:38.466Z,4.70
2019-04-22T21:13:48.600Z,6.80
2019-04-22T21:16:56.456Z,5.10
2019-04-22T21:20:07.003Z,5.20
2019-04-22T21:23:15.091Z,10.67
2019-04-22T21:26:17.791Z,5.10
2019-04-22T21:29:23.630Z,5.20
2019-04-22T21:32:29.705Z,6.73
2019-04-22T21:35:53.975Z,5.40
2019-04-22T21:38:43.996Z,5.57
2019-04-22T21:41:46.860Z,5.00
2019-04-22T21:44:51.193Z,5.20
2019-04-22T21:48:13.477Z,6.10
2019-04-22T21:51:16.251Z,4.90
2019-04-22T21:54:21.877Z,6.00
2019-04-22T21:57:34.637Z,5.80
2019-04-22T22:00:53.974Z,7.30
2019-04-22T22:03:47.809Z,6.03
2019-04-22T22:06:45.333Z,8.83
2019-04-22T22:10:05.931Z,5.73
2019-04-22T22:13:11.071Z,6.57
2019-04-22T22:16:14.472Z,6.20
2019-04-22T22:19:24.037Z,6.23
2019-04-22T22:25:33.569Z,5.97
2019-04-22T22:31:52.946Z,6.10
2019-04-22T22:35:00.580Z,6.40
2019-04-22T22:38:03.322Z,7.40
2019-04-22T22:40:52.021Z,7.20
2019-04-22T22:44:06.651Z,6.50
2019-04-22T22:47:25.841Z,13.03
2019-04-22T22:50:32.681Z,6.80
2019-04-22T22:53:47.423Z,7.27
2019-04-22T22:56:55.680Z,7.23
2019-04-22T22:59:51.283Z,7.23
2019-04-22T23:03:23.250Z,8.30
2019-04-22T23:06:16.004Z,7.77
2019-04-22T23:09:13.210Z,8.23
2019-04-22T23:12:32.889Z,7.70
2019-04-22T23:15:25.370Z,8.67
2019-04-22T23:18:14.010Z,8.20
2019-04-22T23:21:27.347Z,7.03
2019-04-22T23:24:55.489Z,8.30
2019-04-22T23:28:16.110Z,8.50
2019-04-22T23:31:23.647Z,12.67
2019-04-22T23:34:32.709Z,8.50
2019-04-22T23:37:47.633Z,8.03
2019-04-22T23:40:47.453Z,19.13
2019-04-22T23:44:02.081Z,7.77
2019-04-22T23:47:13.962Z,8.47
2019-04-22T23:50:29.440Z,8.93
2019-04-22T23:56:39.687Z,7.77
2019-04-22T23:59:49.374Z,8.73
